Time;durP1;ratioP1;P1;durP2;ratioP2;P2;SDS_P1;SDS_P2;PMS_P1;PMS_P2;Temp;Humidity;BMP_temperature;BMP_pressure;BME280_temperature;BME280_humidity;BME280_pressure;Samples;Min_cycle;Max_cycle;Signal;HPM_P1;HPM_P2
2022/06/01 00:01:28;;;;;;;1.10;0.90;;;11.40;99.90;;;;;;4970071;28;20522;-73
2022/06/01 00:03:54;;;;;;;0.90;0.80;;;11.40;99.90;;;;;;4968842;29;20352;-73
2022/06/01 00:06:19;;;;;;;1.00;0.63;;;11.40;99.90;;;;;;4968503;29;20185;-73
2022/06/01 00:08:45;;;;;;;0.90;0.67;;;11.30;99.90;;;;;;4969520;28;20179;-73
2022/06/01 00:11:11;;;;;;;0.80;0.60;;;11.30;99.90;;;;;;4968419;28;20221;-73
2022/06/01 00:13:36;;;;;;;0.80;0.70;;;11.20;99.90;;;;;;4969376;28;20649;-73
2022/06/01 00:16:02;;;;;;;0.80;0.60;;;11.20;99.90;;;;;;4969588;29;20449;-73
2022/06/01 00:18:28;;;;;;;0.77;0.60;;;11.10;99.90;;;;;;4970787;28;20194;-73
2022/06/01 00:20:53;;;;;;;0.77;0.60;;;11.10;99.90;;;;;;4973770;29;20429;-72
2022/06/01 00:23:20;;;;;;;0.90;0.80;;;11.00;99.90;;;;;;4971949;28;20202;-73
2022/06/01 00:25:46;;;;;;;0.70;0.50;;;11.00;99.90;;;;;;4970886;29;20246;-72
2022/06/01 00:28:14;;;;;;;0.77;0.60;;;10.90;99.90;;;;;;4971158;29;20827;-70
2022/06/01 00:30:39;;;;;;;0.80;0.60;;;10.90;99.90;;;;;;4955838;29;20452;-73
2022/06/01 00:33:05;;;;;;;0.80;0.60;;;10.80;99.90;;;;;;4972771;28;20500;-73
2022/06/01 00:35:31;;;;;;;0.77;0.57;;;10.80;99.90;;;;;;4972128;29;20205;-73
2022/06/01 00:37:57;;;;;;;0.80;0.60;;;10.80;99.90;;;;;;4974364;28;20410;-73
2022/06/01 00:40:26;;;;;;;0.80;0.60;;;10.70;99.90;;;;;;4972245;28;20430;-71
2022/06/01 00:42:57;;;;;;;0.80;0.60;;;10.70;99.90;;;;;;4972461;29;20352;-73
2022/06/01 00:45:24;;;;;;;1.47;0.90;;;10.70;99.90;;;;;;4972667;29;20429;-72
2022/06/01 00:47:51;;;;;;;3.23;0.93;;;10.60;99.90;;;;;;4970863;29;20421;-73
2022/06/01 00:50:28;;;;;;;0.80;0.70;;;10.60;99.90;;;;;;4971992;28;20500;-73
2022/06/01 00:53:05;;;;;;;0.80;0.60;;;10.60;99.90;;;;;;4971616;29;21004;-73
2022/06/01 00:55:34;;;;;;;0.80;0.60;;;10.60;99.90;;;;;;4973709;29;20460;-72
2022/06/01 00:58:16;;;;;;;0.80;0.60;;;10.50;99.90;;;;;;4973999;28;20441;-73
2022/06/01 01:00:43;;;;;;;0.77;0.57;;;10.50;99.90;;;;;;4971475;28;20434;-73
2022/06/01 01:03:10;;;;;;;0.80;0.60;;;10.50;99.90;;;;;;4968998;28;20413;-70
2022/06/01 01:05:40;;;;;;;0.90;0.80;;;10.50;99.90;;;;;;4967964;28;20445;-73
2022/06/01 01:08:06;;;;;;;0.70;0.60;;;10.50;99.90;;;;;;4970838;28;20405;-69
2022/06/01 01:10:33;;;;;;;0.70;0.50;;;10.50;99.90;;;;;;4969431;29;20433;-73
2022/06/01 01:13:01;;;;;;;0.80;0.60;;;10.50;99.90;;;;;;4967220;29;20178;-73
2022/06/01 01:15:54;;;;;;;1.30;0.80;;;10.50;99.90;;;;;;4968636;28;20449;-73
2022/06/01 01:18:38;;;;;;;0.80;0.60;;;10.50;99.90;;;;;;4968843;28;20430;-71
2022/06/01 01:21:32;;;;;;;2.40;1.07;;;10.50;99.90;;;;;;4966333;29;20426;-72
2022/06/01 01:24:23;;;;;;;0.70;0.50;;;10.40;99.90;;;;;;4966494;29;20919;-73
2022/06/01 01:26:51;;;;;;;0.80;0.60;;;10.40;99.90;;;;;;4968176;28;20444;-73
2022/06/01 01:29:34;;;;;;;1.00;0.60;;;10.40;99.90;;;;;;4966383;29;20406;-73
2022/06/01 01:32:00;;;;;;;0.70;0.50;;;10.40;99.90;;;;;;4967132;29;20416;-72
2022/06/01 01:34:26;;;;;;;0.73;0.53;;;10.40;99.90;;;;;;4967080;28;20454;-72
2022/06/01 01:36:54;;;;;;;0.90;0.80;;;10.40;99.90;;;;;;4965469;28;20162;-71
2022/06/01 01:39:20;;;;;;;1.23;0.80;;;10.40;99.90;;;;;;4966141;28;20422;-72
2022/06/01 01:41:51;;;;;;;0.70;0.50;;;10.40;99.90;;;;;;4965779;29;20430;-72
2022/06/01 01:44:35;;;;;;;0.70;0.50;;;10.40;99.90;;;;;;4981837;28;20174;-73
2022/06/01 01:47:01;;;;;;;0.80;0.60;;;10.40;99.90;;;;;;4966558;28;20410;-73
2022/06/01 01:49:30;;;;;;;0.80;0.80;;;10.40;99.90;;;;;;4967374;28;20486;-73
2022/06/01 01:52:00;;;;;;;0.70;0.50;;;10.40;99.90;;;;;;4968543;28;20177;-74
2022/06/01 01:54:46;;;;;;;0.80;0.60;;;10.40;99.90;;;;;;4968574;29;20457;-72
2022/06/01 01:57:26;;;;;;;0.70;0.50;;;10.30;99.90;;;;;;4967842;28;20414;-73
2022/06/01 02:00:15;;;;;;;0.83;0.80;;;10.30;99.90;;;;;;4965945;28;20433;-72
2022/06/01 02:03:07;;;;;;;0.70;0.60;;;10.30;99.90;;;;;;4966944;28;20856;-74
2022/06/01 02:06:08;;;;;;;1.07;0.97;;;10.30;99.90;;;;;;4965102;28;20414;-73
2022/06/01 02:08:47;;;;;;;1.00;0.87;;;10.30;99.90;;;;;;4966546;29;20512;-74
2022/06/01 02:14:40;;;;;;;0.70;0.50;;;10.20;99.90;;;;;;4968215;29;20484;-73
2022/06/01 02:17:08;;;;;;;0.80;0.70;;;10.20;99.90;;;;;;4982540;28;20434;-73
2022/06/01 02:19:44;;;;;;;0.80;0.60;;;10.20;99.90;;;;;;4967049;29;20461;-73
2022/06/01 02:22:11;;;;;;;0.70;0.50;;;10.20;99.90;;;;;;4965562;29;20422;-74
2022/06/01 02:24:37;;;;;;;0.70;0.50;;;10.10;99.90;;;;;;4966399;29;20434;-73
2022/06/01 02:27:04;;;;;;;1.67;1.13;;;10.10;99.90;;;;;;4965648;29;20504;-73
2022/06/01 02:29:34;;;;;;;0.80;0.60;;;10.10;99.90;;;;;;4965343;28;20429;-74
2022/06/01 02:32:02;;;;;;;0.80;0.57;;;10.10;99.90;;;;;;4982494;28;20502;-73
2022/06/01 02:34:29;;;;;;;0.70;0.50;;;10.00;99.90;;;;;;4966711;28;20457;-73
2022/06/01 02:36:57;;;;;;;0.70;0.60;;;10.00;99.90;;;;;;4965987;29;20417;-71
2022/06/01 02:39:25;;;;;;;0.70;0.50;;;10.00;99.90;;;;;;4963702;28;20410;-73
2022/06/01 02:44:34;;;;;;;0.90;0.73;;;10.00;99.90;;;;;;4966510;29;20421;-74
2022/06/01 02:47:00;;;;;;;0.70;0.50;;;10.00;99.90;;;;;;4965333;28;20430;-74
2022/06/01 02:49:26;;;;;;;1.83;1.27;;;9.90;99.90;;;;;;4966070;29;20185;-73
2022/06/01 02:51:52;;;;;;;0.70;0.60;;;9.90;99.90;;;;;;4967273;28;20698;-71
2022/06/01 02:54:17;;;;;;;0.70;0.53;;;9.90;99.90;;;;;;4965766;29;20465;-72
2022/06/01 02:56:43;;;;;;;1.00;0.83;;;9.90;99.90;;;;;;4964419;29;20174;-73
2022/06/01 02:59:09;;;;;;;1.10;1.00;;;9.90;99.90;;;;;;4964192;29;20182;-74
2022/06/01 03:01:36;;;;;;;0.80;0.73;;;9.80;99.90;;;;;;4964091;29;20197;-74
2022/06/01 03:04:03;;;;;;;0.90;0.70;;;9.80;99.90;;;;;;4966537;28;20414;-72
2022/06/01 03:06:28;;;;;;;1.00;0.70;;;9.80;99.90;;;;;;4968141;28;20410;-74
2022/06/01 03:08:54;;;;;;;0.90;0.70;;;9.80;99.90;;;;;;4966478;28;20418;-72
2022/06/01 03:11:19;;;;;;;2.13;1.07;;;9.80;99.90;;;;;;4965506;29;20202;-72
2022/06/01 03:13:45;;;;;;;0.80;0.70;;;9.70;99.90;;;;;;4964252;29;20241;-74
2022/06/01 03:16:10;;;;;;;2.97;0.70;;;9.70;99.90;;;;;;4964469;28;20253;-73
2022/06/01 03:18:36;;;;;;;0.70;0.50;;;9.70;99.90;;;;;;4963981;29;20264;-72
2022/06/01 03:21:03;;;;;;;1.47;0.70;;;9.70;99.90;;;;;;4963701;29;20305;-74
2022/06/01 03:23:29;;;;;;;0.70;0.50;;;9.70;99.90;;;;;;4965258;29;20170;-72
2022/06/01 03:25:55;;;;;;;0.70;0.60;;;9.70;99.90;;;;;;4966298;29;20426;-72
2022/06/01 03:28:21;;;;;;;1.00;0.70;;;9.70;99.90;;;;;;4966584;28;20501;-70
2022/06/01 03:30:47;;;;;;;0.80;0.60;;;9.70;99.90;;;;;;4965973;28;20822;-74
2022/06/01 03:33:13;;;;;;;0.70;0.50;;;9.70;99.90;;;;;;4968265;28;20170;-74
2022/06/01 03:35:39;;;;;;;0.70;0.53;;;9.70;99.90;;;;;;4966891;29;20476;-72
2022/06/01 03:38:06;;;;;;;0.87;0.70;;;9.70;99.90;;;;;;4969267;29;20171;-73
2022/06/01 03:40:33;;;;;;;0.80;0.60;;;9.70;99.90;;;;;;4969467;28;20429;-72
2022/06/01 03:43:00;;;;;;;0.70;0.50;;;9.70;99.90;;;;;;4967635;29;20422;-72
2022/06/01 03:48:11;;;;;;;0.80;0.60;;;9.70;99.90;;;;;;4969393;29;20408;-74
2022/06/01 03:50:37;;;;;;;0.70;0.60;;;9.70;99.90;;;;;;4968830;28;20418;-74
2022/06/01 03:53:03;;;;;;;0.80;0.70;;;9.80;99.90;;;;;;4968245;28;20402;-74
2022/06/01 03:55:29;;;;;;;0.77;0.60;;;9.80;99.90;;;;;;4968064;28;20487;-74
2022/06/01 03:57:55;;;;;;;1.27;0.80;;;9.80;99.90;;;;;;4972010;28;20467;-74
2022/06/01 04:00:23;;;;;;;0.70;0.50;;;9.80;99.90;;;;;;4972292;28;20505;-74
2022/06/01 04:02:49;;;;;;;0.80;0.80;;;9.80;99.90;;;;;;4973921;28;20401;-72
2022/06/01 04:05:16;;;;;;;0.80;0.60;;;9.90;99.90;;;;;;4974282;28;20433;-72
2022/06/01 04:07:42;;;;;;;0.70;0.60;;;9.90;99.90;;;;;;4972973;28;20433;-74
2022/06/01 04:10:08;;;;;;;0.70;0.50;;;9.90;99.90;;;;;;4971022;29;20430;-73
2022/06/01 04:12:34;;;;;;;0.80;0.67;;;9.90;99.90;;;;;;4972310;28;20293;-73
2022/06/01 04:15:00;;;;;;;0.97;0.60;;;10.00;99.90;;;;;;4972551;28;20472;-73
2022/06/01 04:17:26;;;;;;;1.87;1.33;;;10.00;99.90;;;;;;4970790;29;20441;-74
2022/06/01 04:19:51;;;;;;;1.43;0.60;;;10.00;99.90;;;;;;4970605;28;20190;-74
2022/06/01 04:22:19;;;;;;;1.00;0.80;;;10.00;99.90;;;;;;4971124;28;20170;-74
2022/06/01 04:24:45;;;;;;;0.70;0.50;;;10.10;99.90;;;;;;4971500;28;20170;-74
2022/06/01 04:27:11;;;;;;;0.70;0.50;;;10.10;99.90;;;;;;4970625;28;20421;-74
2022/06/01 04:29:37;;;;;;;0.70;0.57;;;10.20;99.90;;;;;;4970683;28;20190;-73
2022/06/01 04:32:08;;;;;;;0.90;0.70;;;10.20;99.90;;;;;;4968221;29;20175;-74
2022/06/01 04:34:34;;;;;;;0.90;0.90;;;10.20;99.90;;;;;;4966996;29;20461;-72
2022/06/01 04:37:00;;;;;;;0.70;0.50;;;10.30;99.90;;;;;;4969529;28;20422;-72
2022/06/01 04:39:26;;;;;;;0.80;0.67;;;10.30;99.90;;;;;;4968651;29;20179;-74
2022/06/01 04:41:52;;;;;;;0.87;0.83;;;10.40;99.90;;;;;;4969320;29;20418;-74
2022/06/01 04:44:19;;;;;;;1.53;0.70;;;10.40;99.90;;;;;;4969775;28;20265;-75
2022/06/01 04:46:44;;;;;;;0.80;0.70;;;10.40;99.90;;;;;;4969293;28;20417;-73
2022/06/01 04:49:10;;;;;;;0.70;0.60;;;10.50;99.90;;;;;;4968277;28;20424;-74
2022/06/01 04:51:36;;;;;;;0.80;0.60;;;10.50;99.90;;;;;;4967962;28;20198;-74
2022/06/01 04:54:02;;;;;;;0.87;0.80;;;10.60;99.90;;;;;;4970017;28;20693;-74
2022/06/01 04:56:28;;;;;;;0.70;0.60;;;10.60;99.90;;;;;;4967514;28;20422;-74
2022/06/01 04:58:54;;;;;;;1.00;0.93;;;10.70;99.90;;;;;;4967892;29;20428;-74
2022/06/01 05:01:20;;;;;;;0.70;0.50;;;10.70;99.90;;;;;;4966026;29;20194;-74
2022/06/01 05:03:45;;;;;;;0.70;0.50;;;10.80;99.90;;;;;;4964766;29;20166;-73
2022/06/01 05:06:11;;;;;;;0.80;0.60;;;10.80;99.90;;;;;;4964136;28;20410;-73
2022/06/01 05:08:37;;;;;;;0.70;0.50;;;10.90;99.90;;;;;;4965278;28;20174;-71
2022/06/01 05:11:02;;;;;;;0.97;0.97;;;10.90;99.90;;;;;;4967981;28;20699;-74
2022/06/01 05:13:28;;;;;;;0.70;0.60;;;11.00;99.90;;;;;;4963612;28;20177;-74
2022/06/01 05:15:57;;;;;;;0.80;0.60;;;11.00;99.90;;;;;;4963132;29;20201;-74
2022/06/01 05:18:23;;;;;;;2.60;1.23;;;11.10;99.90;;;;;;4963615;28;20216;-75
2022/06/01 05:20:50;;;;;;;1.50;1.40;;;11.20;99.90;;;;;;4961124;29;20512;-74
2022/06/01 05:23:17;;;;;;;0.90;0.70;;;11.20;99.90;;;;;;4963395;28;20403;-74
2022/06/01 05:25:45;;;;;;;0.80;0.60;;;11.30;99.90;;;;;;4963813;29;20485;-75
2022/06/01 05:28:11;;;;;;;0.97;0.70;;;11.40;99.90;;;;;;4963050;29;20446;-74
2022/06/01 05:30:37;;;;;;;0.80;0.70;;;11.50;99.90;;;;;;4963490;29;20441;-74
2022/06/01 05:33:03;;;;;;;6.73;1.47;;;11.50;99.90;;;;;;4964929;29;20422;-74
2022/06/01 05:35:29;;;;;;;0.70;0.50;;;11.60;99.90;;;;;;4965690;29;20194;-74
2022/06/01 05:37:54;;;;;;;0.80;0.70;;;11.70;99.90;;;;;;4962684;28;20406;-74
2022/06/01 05:40:20;;;;;;;0.70;0.50;;;11.70;99.90;;;;;;4962595;29;20265;-73
2022/06/01 05:42:45;;;;;;;0.80;0.67;;;11.80;99.90;;;;;;4964268;29;20177;-72
2022/06/01 05:45:11;;;;;;;0.70;0.50;;;11.90;99.90;;;;;;4963482;29;20177;-74
2022/06/01 05:47:38;;;;;;;0.80;0.70;;;12.00;99.90;;;;;;4962335;29;20174;-73
2022/06/01 05:50:05;;;;;;;1.73;0.77;;;12.10;99.90;;;;;;4960304;28;20461;-75
2022/06/01 05:52:31;;;;;;;1.10;1.00;;;12.20;99.90;;;;;;4960838;29;20826;-74
2022/06/01 05:54:56;;;;;;;0.87;0.87;;;12.30;99.90;;;;;;4959705;29;20464;-74
2022/06/01 05:57:22;;;;;;;1.20;1.10;;;12.40;99.90;;;;;;4959620;29;20170;-74
2022/06/01 05:59:47;;;;;;;0.70;0.57;;;12.60;99.90;;;;;;4958265;29;20194;-75
2022/06/01 06:02:13;;;;;;;0.70;0.60;;;12.70;99.90;;;;;;4959008;29;20177;-75
2022/06/01 06:04:38;;;;;;;0.93;0.80;;;12.90;99.90;;;;;;4959387;29;20200;-74
2022/06/01 06:07:04;;;;;;;0.70;0.50;;;13.00;99.90;;;;;;4960611;28;20182;-73
2022/06/01 06:09:30;;;;;;;1.20;0.90;;;13.20;99.90;;;;;;4942984;29;20178;-74
2022/06/01 06:11:55;;;;;;;1.47;0.80;;;13.50;99.90;;;;;;4959988;29;20418;-74
2022/06/01 06:14:21;;;;;;;1.37;0.80;;;13.80;99.90;;;;;;4957988;29;20679;-74
2022/06/01 06:16:47;;;;;;;1.73;0.80;;;14.20;99.90;;;;;;4959364;29;20213;-74
2022/06/01 06:19:19;;;;;;;1.23;0.97;;;14.60;99.90;;;;;;4960512;28;20162;-72
2022/06/01 06:21:45;;;;;;;1.10;1.00;;;15.00;99.90;;;;;;4958349;28;20171;-73
2022/06/01 06:24:14;;;;;;;1.10;0.70;;;15.40;99.90;;;;;;4959812;28;20477;-74
2022/06/01 06:26:42;;;;;;;1.47;1.00;;;15.80;99.90;;;;;;4959519;29;20206;-74
2022/06/01 06:29:09;;;;;;;1.63;0.93;;;16.30;99.90;;;;;;4963334;28;20417;-74
2022/06/01 06:31:36;;;;;;;9.10;1.20;;;16.70;99.90;;;;;;4957244;29;21112;-75
2022/06/01 06:34:02;;;;;;;0.80;0.70;;;17.20;99.90;;;;;;4958016;29;20478;-74
2022/06/01 06:36:27;;;;;;;0.80;0.70;;;17.80;99.90;;;;;;4959231;28;20406;-75
2022/06/01 06:38:53;;;;;;;0.97;0.87;;;18.30;99.90;;;;;;4956606;29;20181;-74
2022/06/01 06:41:18;;;;;;;0.80;0.60;;;19.00;99.90;;;;;;4958047;28;20186;-74
2022/06/01 06:43:44;;;;;;;1.20;1.00;;;19.70;99.90;;;;;;4958672;28;20210;-74
2022/06/01 06:46:12;;;;;;;1.50;1.10;;;20.50;99.90;;;;;;4959237;28;20648;-74
2022/06/01 06:48:39;;;;;;;0.90;0.80;;;21.40;99.90;;;;;;4957611;28;20191;-74
2022/06/01 06:51:05;;;;;;;1.00;0.83;;;22.30;99.90;;;;;;4956991;28;20484;-75
2022/06/01 06:53:31;;;;;;;0.90;0.80;;;23.00;99.90;;;;;;4958121;28;20410;-75
2022/06/01 06:55:57;;;;;;;1.70;1.07;;;23.30;99.90;;;;;;4959556;29;20481;-74
2022/06/01 06:58:23;;;;;;;0.80;0.70;;;23.50;99.90;;;;;;4974628;28;20264;-75
2022/06/01 07:00:49;;;;;;;1.10;1.00;;;23.60;99.90;;;;;;4959440;29;20430;-74
2022/06/01 07:03:15;;;;;;;0.80;0.80;;;23.90;99.90;;;;;;4960690;28;20425;-75
2022/06/01 07:08:26;;;;;;;1.57;1.47;;;24.10;99.90;;;;;;4963720;29;20421;-74
2022/06/01 07:10:53;;;;;;;1.57;0.90;;;24.00;99.90;;;;;;4963230;28;20816;-72
2022/06/01 07:13:19;;;;;;;2.30;0.97;;;23.90;99.90;;;;;;4967081;28;20421;-73
2022/06/01 07:15:44;;;;;;;1.73;0.90;;;23.90;99.90;;;;;;4966515;29;20468;-75
2022/06/01 07:18:10;;;;;;;0.80;0.60;;;24.30;99.90;;;;;;4965713;28;20441;-75
2022/06/01 07:20:36;;;;;;;0.90;0.80;;;24.80;99.90;;;;;;4961620;28;20190;-74
2022/06/01 07:23:01;;;;;;;0.80;0.60;;;24.90;99.90;;;;;;4962287;29;20171;-74
2022/06/01 07:25:28;;;;;;;2.37;0.70;;;25.20;99.90;;;;;;4961438;28;20205;-75
2022/06/01 07:27:54;;;;;;;0.90;0.70;;;25.90;99.90;;;;;;4962354;28;20201;-74
2022/06/01 07:30:20;;;;;;;0.90;0.80;;;26.50;99.90;;;;;;4960534;28;20421;-75
2022/06/01 07:32:47;;;;;;;0.90;0.80;;;26.80;99.90;;;;;;4963953;28;20752;-74
2022/06/01 07:35:13;;;;;;;0.80;0.70;;;27.70;99.90;;;;;;4962988;28;20209;-73
2022/06/01 07:43:10;;;;;;;0.83;0.70;;;29.60;99.90;;;;;;4962199;29;20401;-74
2022/06/01 07:45:41;;;;;;;0.90;0.80;;;29.60;99.90;;;;;;4963988;28;20484;-74
2022/06/01 07:48:07;;;;;;;0.90;0.80;;;29.30;89.50;;;;;;4964740;28;20749;-75
2022/06/01 07:50:34;;;;;;;1.33;0.90;;;29.00;85.30;;;;;;4964257;28;20429;-74
2022/06/01 07:53:02;;;;;;;0.80;0.60;;;29.50;79.40;;;;;;4964147;28;20409;-73
2022/06/01 07:55:28;;;;;;;1.00;0.90;;;29.80;67.60;;;;;;4963977;29;20461;-74
2022/06/01 07:57:53;;;;;;;1.03;0.70;;;29.50;65.50;;;;;;4961498;29;20509;-74
2022/06/01 08:00:20;;;;;;;0.90;0.70;;;29.50;65.60;;;;;;4962933;29;20512;-73
2022/06/01 08:02:46;;;;;;;0.90;0.70;;;30.20;65.70;;;;;;4963227;28;20171;-74
2022/06/01 08:05:13;;;;;;;7.33;1.00;;;31.20;62.70;;;;;;4964683;28;20406;-73
2022/06/01 08:07:39;;;;;;;1.63;0.90;;;32.00;57.20;;;;;;4966079;28;20433;-74
2022/06/01 08:10:06;;;;;;;1.20;0.90;;;33.40;54.50;;;;;;4970760;28;20505;-75
2022/06/01 08:15:16;;;;;;;1.00;0.90;;;36.30;52.20;;;;;;4965435;29;20455;-75
2022/06/01 08:17:46;;;;;;;1.10;1.00;;;37.90;49.80;;;;;;4963009;29;20762;-74
2022/06/01 08:20:12;;;;;;;1.00;0.90;;;39.40;48.60;;;;;;4963239;28;20433;-74
2022/06/01 08:22:38;;;;;;;1.67;1.30;;;40.70;46.30;;;;;;4963101;28;20406;-71
2022/06/01 08:25:05;;;;;;;1.10;1.00;;;41.60;44.70;;;;;;4966691;28;20507;-72
2022/06/01 08:27:31;;;;;;;1.10;1.00;;;42.10;38.00;;;;;;4966006;28;20413;-72
2022/06/01 08:29:56;;;;;;;1.20;1.10;;;42.70;36.70;;;;;;4966122;28;20465;-72
2022/06/01 08:32:22;;;;;;;1.00;0.90;;;43.50;36.30;;;;;;4963864;28;20175;-68
2022/06/01 08:34:47;;;;;;;1.27;1.00;;;43.70;36.00;;;;;;4962819;29;20600;-73
2022/06/01 08:37:13;;;;;;;1.50;0.97;;;43.70;36.60;;;;;;4963457;28;20182;-73
2022/06/01 08:39:38;;;;;;;1.10;1.00;;;44.40;35.90;;;;;;4962801;29;20210;-73
2022/06/01 08:42:05;;;;;;;1.23;1.13;;;44.90;33.70;;;;;;4962445;29;20182;-71
2022/06/01 08:44:38;;;;;;;1.10;1.00;;;44.80;32.70;;;;;;4957493;28;20213;-72
2022/06/01 08:47:16;;;;;;;2.33;1.00;;;44.60;32.70;;;;;;4957776;28;20900;-73
2022/06/01 08:49:42;;;;;;;1.10;1.00;;;44.30;32.90;;;;;;4959524;28;20774;-73
2022/06/01 08:52:08;;;;;;;1.00;0.90;;;44.40;33.00;;;;;;4958295;28;20847;-73
2022/06/01 08:54:34;;;;;;;1.10;1.00;;;44.40;33.00;;;;;;4960372;28;20446;-73
2022/06/01 08:57:05;;;;;;;1.07;0.97;;;44.40;32.00;;;;;;4960026;28;20182;-73
2022/06/01 08:59:49;;;;;;;1.20;1.10;;;44.90;32.30;;;;;;4959275;29;20629;-73
2022/06/01 09:02:20;;;;;;;1.10;1.00;;;45.40;31.90;;;;;;4975224;28;20426;-73
2022/06/01 09:05:08;;;;;;;1.40;1.30;;;46.00;30.10;;;;;;4960358;28;20432;-73
2022/06/01 09:07:40;;;;;;;1.20;1.10;;;45.80;29.50;;;;;;4959479;29;20389;-73
2022/06/01 09:10:27;;;;;;;1.07;0.97;;;45.60;29.10;;;;;;4960778;28;20773;-73
2022/06/01 09:13:08;;;;;;;1.03;0.93;;;45.40;28.60;;;;;;4958162;28;20387;-73
2022/06/01 09:16:06;;;;;;;1.10;1.00;;;43.90;28.80;;;;;;4957047;28;20380;-74
2022/06/01 09:18:53;;;;;;;0.90;0.80;;;41.80;29.50;;;;;;4955539;29;20488;-72
2022/06/01 09:24:05;;;;;;;0.90;0.80;;;39.00;31.70;;;;;;4956307;29;20537;-74
2022/06/01 09:26:31;;;;;;;1.03;0.80;;;40.30;32.90;;;;;;4956597;29;20947;-74
2022/06/01 09:28:59;;;;;;;1.00;0.90;;;42.00;32.70;;;;;;4956744;28;20472;-70
2022/06/01 09:31:37;;;;;;;0.90;0.80;;;42.10;32.50;;;;;;4955724;28;20230;-73
2022/06/01 09:34:25;;;;;;;0.90;0.80;;;41.40;32.70;;;;;;4954898;29;20953;-73
2022/06/01 09:37:03;;;;;;;1.13;1.00;;;40.00;32.60;;;;;;4956835;29;20402;-72
2022/06/01 09:39:29;;;;;;;1.00;0.90;;;38.60;32.60;;;;;;4970742;28;20453;-73
2022/06/01 09:42:25;;;;;;;0.90;0.70;;;37.10;33.10;;;;;;4956970;29;20850;-73
2022/06/01 09:44:52;;;;;;;1.00;0.77;;;35.80;33.70;;;;;;4956377;28;20248;-72
2022/06/01 09:47:40;;;;;;;1.00;0.90;;;35.10;34.40;;;;;;4956418;28;21059;-74
2022/06/01 09:50:22;;;;;;;0.97;0.80;;;35.20;35.30;;;;;;4954921;29;20462;-74
2022/06/01 09:52:49;;;;;;;0.90;0.80;;;35.00;35.20;;;;;;4955910;28;20991;-74
2022/06/01 09:55:17;;;;;;;0.90;0.70;;;34.30;35.20;;;;;;4956591;28;20497;-73
2022/06/01 09:57:43;;;;;;;0.90;0.80;;;33.60;35.50;;;;;;4955813;28;20420;-73
2022/06/01 10:06:30;;;;;;;0.90;0.70;;;30.50;37.20;;;;;;4955334;29;20441;-73
2022/06/01 10:09:00;;;;;;;0.90;0.70;;;29.30;37.70;;;;;;4956016;28;20442;-73
2022/06/01 10:11:34;;;;;;;1.20;0.80;;;28.50;38.40;;;;;;4954925;28;20429;-73
2022/06/01 10:14:37;;;;;;;0.90;0.60;;;27.80;39.10;;;;;;4953815;28;20472;-73
2022/06/01 10:17:08;;;;;;;0.90;0.77;;;27.20;39.80;;;;;;4954422;28;20468;-73
2022/06/01 10:19:38;;;;;;;1.13;0.70;;;26.80;40.60;;;;;;4954713;28;20429;-73
2022/06/01 10:22:22;;;;;;;0.90;0.70;;;26.70;41.30;;;;;;4955424;28;20402;-73
2022/06/01 10:25:01;;;;;;;0.90;0.70;;;26.60;41.50;;;;;;4954600;28;20542;-73
2022/06/01 10:27:45;;;;;;;1.10;1.00;;;28.30;42.40;;;;;;4955300;29;20410;-72
2022/06/01 10:30:21;;;;;;;0.97;0.87;;;31.10;41.50;;;;;;4955023;29;20417;-74
2022/06/01 10:32:53;;;;;;;0.90;0.70;;;34.10;39.20;;;;;;4955189;28;20962;-73
2022/06/01 10:35:44;;;;;;;1.00;0.90;;;36.20;37.50;;;;;;4956735;28;20414;-74
2022/06/01 10:38:35;;;;;;;1.53;0.80;;;36.10;34.00;;;;;;4954938;28;20881;-73
2022/06/01 10:41:07;;;;;;;0.90;0.80;;;35.40;33.70;;;;;;4968800;28;20434;-70
2022/06/01 10:43:44;;;;;;;1.60;0.90;;;34.50;34.00;;;;;;4969695;28;20417;-74
2022/06/01 10:46:26;;;;;;;1.07;0.97;;;33.70;34.70;;;;;;4954583;28;20457;-73
2022/06/01 10:49:14;;;;;;;1.07;0.80;;;33.20;35.50;;;;;;4969445;28;20782;-72
2022/06/01 10:51:40;;;;;;;1.67;0.80;;;32.60;35.90;;;;;;4954390;28;20429;-74
2022/06/01 10:54:25;;;;;;;1.33;1.20;;;33.00;36.90;;;;;;4952842;29;20908;-73
2022/06/01 10:56:50;;;;;;;1.00;0.87;;;33.70;37.00;;;;;;4954361;28;20169;-74
2022/06/01 10:59:17;;;;;;;1.00;0.90;;;35.10;37.10;;;;;;4955030;28;20402;-73
2022/06/01 11:02:01;;;;;;;0.90;0.80;;;37.30;36.20;;;;;;4956646;29;20174;-73
2022/06/01 11:05:13;;;;;;;1.00;0.90;;;40.30;34.20;;;;;;4958156;28;20536;-74
2022/06/01 11:08:17;;;;;;;1.50;1.30;;;43.00;31.50;;;;;;4954737;28;20410;-74
2022/06/01 11:11:08;;;;;;;1.10;1.00;;;44.90;30.40;;;;;;4914142;29;20443;-74
2022/06/01 11:13:51;;;;;;;1.10;1.00;;;46.50;29.40;;;;;;4915486;29;20904;-74
2022/06/01 11:16:33;;;;;;;1.33;1.23;;;47.00;28.00;;;;;;4947018;28;20415;-75
2022/06/01 11:19:07;;;;;;;1.50;1.40;;;46.90;26.50;;;;;;4955396;29;20391;-73
2022/06/01 11:22:00;;;;;;;1.30;1.20;;;46.80;26.40;;;;;;4971206;28;20452;-74
2022/06/01 11:24:51;;;;;;;1.20;1.10;;;46.60;25.70;;;;;;4960018;28;20420;-74
2022/06/01 11:27:41;;;;;;;1.20;1.10;;;45.20;24.90;;;;;;4955149;29;20801;-74
2022/06/01 11:30:07;;;;;;;1.20;1.10;;;45.40;26.10;;;;;;4969149;28;20797;-74
2022/06/01 11:33:00;;;;;;;1.20;1.10;;;46.10;26.40;;;;;;4954485;28;20402;-75
2022/06/01 11:35:33;;;;;;;1.10;1.00;;;45.60;26.40;;;;;;4954610;28;20452;-74
2022/06/01 11:38:01;;;;;;;1.20;1.10;;;44.80;26.60;;;;;;4954642;28;20749;-75
2022/06/01 11:40:39;;;;;;;1.10;1.00;;;44.20;27.00;;;;;;4952746;28;20473;-72
2022/06/01 11:43:11;;;;;;;1.20;1.10;;;43.80;27.10;;;;;;4953245;29;20401;-74
2022/06/01 11:45:47;;;;;;;1.10;1.00;;;43.50;26.70;;;;;;4953971;29;20449;-73
2022/06/01 11:48:14;;;;;;;1.20;1.10;;;43.80;26.90;;;;;;4953854;29;20895;-74
2022/06/01 11:51:11;;;;;;;1.27;1.17;;;44.80;27.10;;;;;;4954026;28;20433;-75
2022/06/01 11:54:11;;;;;;;1.10;1.00;;;45.00;26.60;;;;;;4953073;28;20406;-74
2022/06/01 11:56:57;;;;;;;1.10;1.00;;;44.50;25.40;;;;;;4953928;29;20381;-75
2022/06/01 11:59:43;;;;;;;1.00;0.90;;;43.80;25.60;;;;;;4952061;28;20410;-74
2022/06/01 12:02:41;;;;;;;1.00;0.90;;;43.00;26.00;;;;;;4953766;28;20809;-75
2022/06/01 12:05:12;;;;;;;1.00;0.90;;;42.20;26.30;;;;;;4954394;28;20451;-74
2022/06/01 12:07:55;;;;;;;1.00;0.90;;;41.20;26.40;;;;;;4955306;28;20414;-74
2022/06/01 12:10:26;;;;;;;1.00;0.90;;;40.80;26.10;;;;;;4951921;29;20851;-74
2022/06/01 12:12:54;;;;;;;1.10;1.00;;;41.70;26.70;;;;;;4953234;28;20522;-72
2022/06/01 12:15:38;;;;;;;1.10;1.00;;;42.40;26.20;;;;;;4954645;28;20414;-74
2022/06/01 12:18:06;;;;;;;1.00;0.90;;;41.70;25.80;;;;;;4954032;28;20440;-74
2022/06/01 12:20:31;;;;;;;1.40;0.93;;;40.60;26.00;;;;;;4956345;28;20461;-74
2022/06/01 12:29:07;;;;;;;1.00;0.90;;;37.40;27.60;;;;;;4957191;29;20453;-72
2022/06/01 12:31:36;;;;;;;0.93;0.80;;;36.70;28.30;;;;;;4957096;28;20512;-74
2022/06/01 12:34:04;;;;;;;1.00;0.90;;;36.80;28.80;;;;;;4956140;28;20946;-74
2022/06/01 12:36:50;;;;;;;1.00;0.90;;;38.40;29.30;;;;;;4956021;28;20425;-74
2022/06/01 12:39:21;;;;;;;1.07;0.97;;;40.10;29.00;;;;;;4957667;28;20486;-74
2022/06/01 12:41:58;;;;;;;0.97;0.87;;;41.50;28.20;;;;;;4956922;28;20402;-73
2022/06/01 12:44:23;;;;;;;1.17;1.07;;;42.20;27.60;;;;;;4957309;28;20464;-73
2022/06/01 12:46:51;;;;;;;1.00;0.90;;;41.90;27.30;;;;;;4957196;28;20405;-74
2022/06/01 12:49:37;;;;;;;1.00;0.90;;;42.50;27.80;;;;;;4956244;29;20223;-73
2022/06/01 12:52:10;;;;;;;1.00;0.90;;;43.60;27.10;;;;;;4956788;29;20384;-74
2022/06/01 12:54:57;;;;;;;1.50;0.90;;;43.00;26.50;;;;;;4957104;28;20446;-75
2022/06/01 12:57:37;;;;;;;0.90;0.80;;;41.90;26.40;;;;;;4957319;28;20465;-74
2022/06/01 13:00:17;;;;;;;1.10;1.00;;;41.00;26.60;;;;;;4956134;28;20434;-74
2022/06/01 13:02:44;;;;;;;1.00;0.90;;;40.00;26.40;;;;;;4958491;29;20417;-74
2022/06/01 13:05:13;;;;;;;1.00;0.90;;;39.30;26.90;;;;;;4955918;29;20496;-74
2022/06/01 13:07:42;;;;;;;1.30;1.10;;;39.30;27.30;;;;;;4957522;28;20422;-74
2022/06/01 13:10:13;;;;;;;1.23;1.13;;;39.40;27.40;;;;;;4957227;28;20525;-74
2022/06/01 13:12:39;;;;;;;1.00;0.90;;;39.50;27.00;;;;;;4956573;28;20398;-74
2022/06/01 13:15:18;;;;;;;1.10;1.00;;;39.70;27.20;;;;;;4957470;28;20421;-74
2022/06/01 13:17:54;;;;;;;1.00;0.80;;;39.90;27.70;;;;;;4957317;28;20440;-71
2022/06/01 13:20:39;;;;;;;1.00;0.80;;;40.00;27.90;;;;;;4956020;28;20442;-72
2022/06/01 13:23:26;;;;;;;1.50;1.00;;;39.70;27.80;;;;;;4956975;28;20406;-74
2022/06/01 13:25:53;;;;;;;1.10;0.90;;;39.00;28.00;;;;;;4956883;28;20485;-74
2022/06/01 13:28:19;;;;;;;1.00;0.90;;;38.00;27.80;;;;;;4957152;28;20425;-74
2022/06/01 13:30:46;;;;;;;1.17;0.83;;;37.10;27.90;;;;;;4956499;28;20426;-74
2022/06/01 13:33:35;;;;;;;0.90;0.70;;;36.20;27.90;;;;;;4957620;29;20920;-72
2022/06/01 13:36:04;;;;;;;1.20;1.00;;;35.10;28.10;;;;;;4956318;28;20413;-74
2022/06/01 13:38:44;;;;;;;0.90;0.80;;;34.10;28.70;;;;;;4956318;28;20418;-74
2022/06/01 13:41:18;;;;;;;1.53;1.43;;;33.20;29.40;;;;;;4955631;28;20513;-74
2022/06/01 13:43:47;;;;;;;1.30;0.80;;;32.30;30.00;;;;;;4955590;28;20408;-74